sensor_id;sensor_type;location;lat;lon;timestamp;temperature;humidity
54614;DHT22;40514;52.758;6.360;2022-12-07T00:00:55;4.50;99.90
54614;DHT22;40514;52.758;6.360;2022-12-07T00:03:21;4.60;99.90
54614;DHT22;40514;52.758;6.360;2022-12-07T00:05:46;4.40;99.90
54614;DHT22;40514;52.758;6.360;2022-12-07T00:08:12;4.30;99.90
54614;DHT22;40514;52.758;6.360;2022-12-07T00:10:37;4.30;99.90
54614;DHT22;40514;52.758;6.360;2022-12-07T00:13:03;4.30;99.90
54614;DHT22;40514;52.758;6.360;2022-12-07T00:15:28;4.30;99.90
54614;DHT22;40514;52.758;6.360;2022-12-07T00:17:54;4.30;99.90
54614;DHT22;40514;52.758;6.360;2022-12-07T00:20:19;4.20;99.90
54614;DHT22;40514;52.758;6.360;2022-12-07T00:22:45;4.20;99.90
54614;DHT22;40514;52.758;6.360;2022-12-07T00:25:10;4.30;99.90
54614;DHT22;40514;52.758;6.360;2022-12-07T00:27:36;4.30;99.90
54614;DHT22;40514;52.758;6.360;2022-12-07T00:30:02;4.40;99.90
54614;DHT22;40514;52.758;6.360;2022-12-07T00:32:27;4.50;99.90
54614;DHT22;40514;52.758;6.360;2022-12-07T00:34:53;4.30;99.90
54614;DHT22;40514;52.758;6.360;2022-12-07T00:37:18;4.30;99.90
54614;DHT22;40514;52.758;6.360;2022-12-07T00:39:46;4.30;99.90
54614;DHT22;40514;52.758;6.360;2022-12-07T00:42:11;4.30;99.90
54614;DHT22;40514;52.758;6.360;2022-12-07T00:44:37;4.30;99.90
54614;DHT22;40514;52.758;6.360;2022-12-07T00:47:02;4.30;99.90
54614;DHT22;40514;52.758;6.360;2022-12-07T00:49:28;4.40;99.90
54614;DHT22;40514;52.758;6.360;2022-12-07T00:51:53;4.30;99.90
54614;DHT22;40514;52.758;6.360;2022-12-07T00:54:19;4.30;99.90
54614;DHT22;40514;52.758;6.360;2022-12-07T00:56:44;4.30;99.90
54614;DHT22;40514;52.758;6.360;2022-12-07T00:59:12;4.30;99.90
54614;DHT22;40514;52.758;6.360;2022-12-07T01:01:42;4.30;99.90
54614;DHT22;40514;52.758;6.360;2022-12-07T01:04:08;4.30;99.90
54614;DHT22;40514;52.758;6.360;2022-12-07T01:06:33;4.30;99.90
54614;DHT22;40514;52.758;6.360;2022-12-07T01:08:59;4.40;99.90
54614;DHT22;40514;52.758;6.360;2022-12-07T01:11:27;4.40;99.90
54614;DHT22;40514;52.758;6.360;2022-12-07T01:13:55;4.40;99.90
54614;DHT22;40514;52.758;6.360;2022-12-07T01:16:23;4.40;99.90
54614;DHT22;40514;52.758;6.360;2022-12-07T01:18:50;4.50;99.90
54614;DHT22;40514;52.758;6.360;2022-12-07T01:21:24;4.50;99.90
54614;DHT22;40514;52.758;6.360;2022-12-07T01:23:51;4.40;99.90
54614;DHT22;40514;52.758;6.360;2022-12-07T01:26:20;4.40;99.90
54614;DHT22;40514;52.758;6.360;2022-12-07T01:28:46;4.30;99.90
54614;DHT22;40514;52.758;6.360;2022-12-07T01:31:14;4.30;99.90
54614;DHT22;40514;52.758;6.360;2022-12-07T01:33:42;4.30;99.90
54614;DHT22;40514;52.758;6.360;2022-12-07T01:36:18;4.20;99.90
54614;DHT22;40514;52.758;6.360;2022-12-07T01:38:45;4.20;99.90
54614;DHT22;40514;52.758;6.360;2022-12-07T01:41:11;4.20;99.90
54614;DHT22;40514;52.758;6.360;2022-12-07T01:44:06;4.30;99.90
54614;DHT22;40514;52.758;6.360;2022-12-07T01:46:22;4.10;99.90
54614;DHT22;40514;52.758;6.360;2022-12-07T01:48:48;4.10;99.90
54614;DHT22;40514;52.758;6.360;2022-12-07T01:51:14;4.10;99.90
54614;DHT22;40514;52.758;6.360;2022-12-07T01:53:43;4.10;99.90
54614;DHT22;40514;52.758;6.360;2022-12-07T01:56:15;4.00;99.90
54614;DHT22;40514;52.758;6.360;2022-12-07T01:58:42;4.00;99.90
54614;DHT22;40514;52.758;6.360;2022-12-07T02:01:08;4.00;99.90
54614;DHT22;40514;52.758;6.360;2022-12-07T02:03:39;4.00;99.90
54614;DHT22;40514;52.758;6.360;2022-12-07T02:06:07;4.00;99.90
54614;DHT22;40514;52.758;6.360;2022-12-07T02:08:34;4.00;99.90
54614;DHT22;40514;52.758;6.360;2022-12-07T02:11:01;4.00;99.90
54614;DHT22;40514;52.758;6.360;2022-12-07T02:13:31;4.00;99.90
54614;DHT22;40514;52.758;6.360;2022-12-07T02:16:08;4.00;99.90
54614;DHT22;40514;52.758;6.360;2022-12-07T02:18:45;3.90;99.90
54614;DHT22;40514;52.758;6.360;2022-12-07T02:21:42;4.00;99.90
54614;DHT22;40514;52.758;6.360;2022-12-07T02:29:39;3.90;99.90
54614;DHT22;40514;52.758;6.360;2022-12-07T02:37:40;3.70;99.90
54614;DHT22;40514;52.758;6.360;2022-12-07T02:40:31;3.70;99.90
54614;DHT22;40514;52.758;6.360;2022-12-07T02:45:52;3.70;99.90
54614;DHT22;40514;52.758;6.360;2022-12-07T02:48:19;3.70;99.90
54614;DHT22;40514;52.758;6.360;2022-12-07T02:50:49;3.70;99.90
54614;DHT22;40514;52.758;6.360;2022-12-07T02:53:36;3.60;99.90
54614;DHT22;40514;52.758;6.360;2022-12-07T02:56:35;3.60;99.90
54614;DHT22;40514;52.758;6.360;2022-12-07T02:59:16;3.70;99.90
54614;DHT22;40514;52.758;6.360;2022-12-07T03:04:22;3.90;99.90
54614;DHT22;40514;52.758;6.360;2022-12-07T03:07:00;3.90;99.90
54614;DHT22;40514;52.758;6.360;2022-12-07T03:09:36;4.80;99.90
54614;DHT22;40514;52.758;6.360;2022-12-07T03:12:13;3.90;99.90
54614;DHT22;40514;52.758;6.360;2022-12-07T03:14:49;4.00;99.90
54614;DHT22;40514;52.758;6.360;2022-12-07T03:17:21;4.00;99.90
54614;DHT22;40514;52.758;6.360;2022-12-07T03:19:51;4.00;99.90
54614;DHT22;40514;52.758;6.360;2022-12-07T03:22:19;4.00;99.90
54614;DHT22;40514;52.758;6.360;2022-12-07T03:24:50;4.00;99.90
54614;DHT22;40514;52.758;6.360;2022-12-07T03:27:31;4.00;99.90
54614;DHT22;40514;52.758;6.360;2022-12-07T03:30:02;4.00;99.90
54614;DHT22;40514;52.758;6.360;2022-12-07T03:35:09;4.00;99.90
54614;DHT22;40514;52.758;6.360;2022-12-07T03:40:34;4.00;99.90
54614;DHT22;40514;52.758;6.360;2022-12-07T03:43:01;4.00;99.90
54614;DHT22;40514;52.758;6.360;2022-12-07T03:46:00;4.00;99.90
54614;DHT22;40514;52.758;6.360;2022-12-07T03:48:32;4.00;99.90
54614;DHT22;40514;52.758;6.360;2022-12-07T03:53:50;4.00;99.90
54614;DHT22;40514;52.758;6.360;2022-12-07T03:56:18;3.90;99.90
54614;DHT22;40514;52.758;6.360;2022-12-07T03:58:44;4.00;99.90
54614;DHT22;40514;52.758;6.360;2022-12-07T04:01:10;4.00;99.90
54614;DHT22;40514;52.758;6.360;2022-12-07T04:03:35;4.00;99.90
54614;DHT22;40514;52.758;6.360;2022-12-07T04:06:01;4.00;99.90
54614;DHT22;40514;52.758;6.360;2022-12-07T04:08:27;3.90;99.90
54614;DHT22;40514;52.758;6.360;2022-12-07T04:10:53;3.90;99.90
54614;DHT22;40514;52.758;6.360;2022-12-07T04:13:18;3.90;99.90
54614;DHT22;40514;52.758;6.360;2022-12-07T04:15:44;3.80;99.90
54614;DHT22;40514;52.758;6.360;2022-12-07T04:18:09;3.80;99.90
54614;DHT22;40514;52.758;6.360;2022-12-07T04:20:35;3.70;99.90
54614;DHT22;40514;52.758;6.360;2022-12-07T04:23:00;3.70;99.90
54614;DHT22;40514;52.758;6.360;2022-12-07T04:25:26;3.70;99.90
54614;DHT22;40514;52.758;6.360;2022-12-07T04:27:51;3.70;99.90
54614;DHT22;40514;52.758;6.360;2022-12-07T04:30:17;3.70;99.90
54614;DHT22;40514;52.758;6.360;2022-12-07T04:32:43;3.70;99.90
54614;DHT22;40514;52.758;6.360;2022-12-07T04:35:09;3.60;99.90
54614;DHT22;40514;52.758;6.360;2022-12-07T04:37:34;3.60;99.90
54614;DHT22;40514;52.758;6.360;2022-12-07T04:40:00;3.60;99.90
54614;DHT22;40514;52.758;6.360;2022-12-07T04:42:26;3.50;99.90
54614;DHT22;40514;52.758;6.360;2022-12-07T04:44:51;3.50;99.90
54614;DHT22;40514;52.758;6.360;2022-12-07T04:47:17;3.50;99.90
54614;DHT22;40514;52.758;6.360;2022-12-07T04:49:42;3.50;99.90
54614;DHT22;40514;52.758;6.360;2022-12-07T04:52:08;3.50;99.90
54614;DHT22;40514;52.758;6.360;2022-12-07T04:54:33;3.50;99.90
54614;DHT22;40514;52.758;6.360;2022-12-07T04:56:59;3.70;99.90
54614;DHT22;40514;52.758;6.360;2022-12-07T04:59:24;3.40;99.90
54614;DHT22;40514;52.758;6.360;2022-12-07T05:01:50;3.40;99.90
54614;DHT22;40514;52.758;6.360;2022-12-07T05:04:16;3.40;99.90
54614;DHT22;40514;52.758;6.360;2022-12-07T05:06:43;3.40;99.90
54614;DHT22;40514;52.758;6.360;2022-12-07T05:09:08;3.30;99.90
54614;DHT22;40514;52.758;6.360;2022-12-07T05:11:34;3.30;99.90
54614;DHT22;40514;52.758;6.360;2022-12-07T05:14:05;3.30;99.90
54614;DHT22;40514;52.758;6.360;2022-12-07T05:16:32;3.30;99.90
54614;DHT22;40514;52.758;6.360;2022-12-07T05:18:58;3.20;99.90
54614;DHT22;40514;52.758;6.360;2022-12-07T05:21:24;3.20;99.90
54614;DHT22;40514;52.758;6.360;2022-12-07T05:23:49;3.20;99.90
54614;DHT22;40514;52.758;6.360;2022-12-07T05:26:15;3.10;99.90
54614;DHT22;40514;52.758;6.360;2022-12-07T05:28:41;3.10;99.90
54614;DHT22;40514;52.758;6.360;2022-12-07T05:31:06;3.10;99.90
54614;DHT22;40514;52.758;6.360;2022-12-07T05:33:32;3.10;99.90
54614;DHT22;40514;52.758;6.360;2022-12-07T05:35:57;3.10;99.90
54614;DHT22;40514;52.758;6.360;2022-12-07T05:38:23;3.00;99.90
54614;DHT22;40514;52.758;6.360;2022-12-07T05:40:50;3.00;99.90
54614;DHT22;40514;52.758;6.360;2022-12-07T05:43:16;3.00;99.90
54614;DHT22;40514;52.758;6.360;2022-12-07T05:45:42;3.00;99.90
54614;DHT22;40514;52.758;6.360;2022-12-07T05:48:07;3.00;99.90
54614;DHT22;40514;52.758;6.360;2022-12-07T05:50:33;3.00;99.90
54614;DHT22;40514;52.758;6.360;2022-12-07T05:52:58;3.00;99.90
54614;DHT22;40514;52.758;6.360;2022-12-07T05:55:24;3.00;99.90
54614;DHT22;40514;52.758;6.360;2022-12-07T05:57:49;3.00;99.90
54614;DHT22;40514;52.758;6.360;2022-12-07T06:00:33;3.00;99.90
54614;DHT22;40514;52.758;6.360;2022-12-07T06:02:59;3.00;99.90
54614;DHT22;40514;52.758;6.360;2022-12-07T06:05:24;3.00;99.90
54614;DHT22;40514;52.758;6.360;2022-12-07T06:07:50;3.00;99.90
54614;DHT22;40514;52.758;6.360;2022-12-07T06:10:15;3.00;99.90
54614;DHT22;40514;52.758;6.360;2022-12-07T06:12:41;3.00;99.90
54614;DHT22;40514;52.758;6.360;2022-12-07T06:15:09;3.00;99.90
54614;DHT22;40514;52.758;6.360;2022-12-07T06:17:35;3.10;99.90
54614;DHT22;40514;52.758;6.360;2022-12-07T06:20:00;3.10;99.90
54614;DHT22;40514;52.758;6.360;2022-12-07T06:22:26;3.20;99.90
54614;DHT22;40514;52.758;6.360;2022-12-07T06:24:51;3.30;99.90
54614;DHT22;40514;52.758;6.360;2022-12-07T06:27:17;3.30;99.90
54614;DHT22;40514;52.758;6.360;2022-12-07T06:29:43;3.30;99.90
54614;DHT22;40514;52.758;6.360;2022-12-07T06:32:09;3.40;99.90
54614;DHT22;40514;52.758;6.360;2022-12-07T06:34:34;3.40;99.90
54614;DHT22;40514;52.758;6.360;2022-12-07T06:37:00;3.50;99.90
54614;DHT22;40514;52.758;6.360;2022-12-07T06:39:27;3.50;99.90
54614;DHT22;40514;52.758;6.360;2022-12-07T06:41:53;3.60;99.90
54614;DHT22;40514;52.758;6.360;2022-12-07T06:44:20;3.60;99.90
54614;DHT22;40514;52.758;6.360;2022-12-07T06:46:47;3.60;99.90
54614;DHT22;40514;52.758;6.360;2022-12-07T06:49:12;3.60;99.90
54614;DHT22;40514;52.758;6.360;2022-12-07T06:51:38;3.70;99.90
54614;DHT22;40514;52.758;6.360;2022-12-07T06:54:10;3.70;99.90
54614;DHT22;40514;52.758;6.360;2022-12-07T06:56:36;3.60;99.90
54614;DHT22;40514;52.758;6.360;2022-12-07T06:59:03;3.60;99.90
54614;DHT22;40514;52.758;6.360;2022-12-07T07:01:31;3.60;99.90
54614;DHT22;40514;52.758;6.360;2022-12-07T07:03:56;3.60;99.90
54614;DHT22;40514;52.758;6.360;2022-12-07T07:06:22;3.60;99.90
54614;DHT22;40514;52.758;6.360;2022-12-07T07:08:47;3.60;99.90
54614;DHT22;40514;52.758;6.360;2022-12-07T07:11:13;3.60;99.90
54614;DHT22;40514;52.758;6.360;2022-12-07T07:13:38;3.60;99.90
54614;DHT22;40514;52.758;6.360;2022-12-07T07:16:05;3.50;99.90
54614;DHT22;40514;52.758;6.360;2022-12-07T07:18:30;3.50;99.90
54614;DHT22;40514;52.758;6.360;2022-12-07T07:20:56;3.40;99.90
54614;DHT22;40514;52.758;6.360;2022-12-07T07:23:22;3.40;99.90
54614;DHT22;40514;52.758;6.360;2022-12-07T07:25:48;3.50;99.90
54614;DHT22;40514;52.758;6.360;2022-12-07T07:28:15;3.50;99.90
54614;DHT22;40514;52.758;6.360;2022-12-07T07:30:41;3.50;99.90
54614;DHT22;40514;52.758;6.360;2022-12-07T07:33:06;3.50;99.90
54614;DHT22;40514;52.758;6.360;2022-12-07T07:35:33;3.50;99.90
54614;DHT22;40514;52.758;6.360;2022-12-07T07:37:59;3.50;99.90
54614;DHT22;40514;52.758;6.360;2022-12-07T07:40:25;3.50;99.90
54614;DHT22;40514;52.758;6.360;2022-12-07T07:42:52;3.60;99.90
54614;DHT22;40514;52.758;6.360;2022-12-07T07:45:18;3.60;99.90
54614;DHT22;40514;52.758;6.360;2022-12-07T07:47:44;3.70;99.90
54614;DHT22;40514;52.758;6.360;2022-12-07T07:50:10;3.70;99.90
54614;DHT22;40514;52.758;6.360;2022-12-07T07:52:36;3.70;99.90
54614;DHT22;40514;52.758;6.360;2022-12-07T07:55:01;3.70;99.90
54614;DHT22;40514;52.758;6.360;2022-12-07T07:57:28;3.80;99.90
54614;DHT22;40514;52.758;6.360;2022-12-07T07:59:53;3.80;99.90
54614;DHT22;40514;52.758;6.360;2022-12-07T08:02:20;3.80;99.90
54614;DHT22;40514;52.758;6.360;2022-12-07T08:04:46;3.90;99.90
54614;DHT22;40514;52.758;6.360;2022-12-07T08:07:12;3.90;99.90
54614;DHT22;40514;52.758;6.360;2022-12-07T08:09:37;4.00;99.90
54614;DHT22;40514;52.758;6.360;2022-12-07T08:12:04;3.90;99.90
54614;DHT22;40514;52.758;6.360;2022-12-07T08:14:29;3.90;99.90
54614;DHT22;40514;52.758;6.360;2022-12-07T08:16:55;4.00;99.90
54614;DHT22;40514;52.758;6.360;2022-12-07T08:19:20;3.90;99.90
54614;DHT22;40514;52.758;6.360;2022-12-07T08:21:46;3.90;99.90
54614;DHT22;40514;52.758;6.360;2022-12-07T08:24:12;3.80;99.90
54614;DHT22;40514;52.758;6.360;2022-12-07T08:26:37;3.70;99.90
54614;DHT22;40514;52.758;6.360;2022-12-07T08:29:03;3.60;99.90
54614;DHT22;40514;52.758;6.360;2022-12-07T08:31:29;3.60;99.90
54614;DHT22;40514;52.758;6.360;2022-12-07T08:33:55;3.60;99.90
54614;DHT22;40514;52.758;6.360;2022-12-07T08:36:20;3.50;99.90
54614;DHT22;40514;52.758;6.360;2022-12-07T08:38:48;3.70;99.90
54614;DHT22;40514;52.758;6.360;2022-12-07T08:41:13;3.60;99.90
54614;DHT22;40514;52.758;6.360;2022-12-07T08:43:39;3.60;99.90
54614;DHT22;40514;52.758;6.360;2022-12-07T08:46:31;3.60;99.90
54614;DHT22;40514;52.758;6.360;2022-12-07T08:49:07;3.70;99.90
54614;DHT22;40514;52.758;6.360;2022-12-07T08:51:34;3.70;99.90
54614;DHT22;40514;52.758;6.360;2022-12-07T08:54:02;3.80;99.90
54614;DHT22;40514;52.758;6.360;2022-12-07T08:56:29;3.80;99.90
54614;DHT22;40514;52.758;6.360;2022-12-07T08:58:54;3.90;99.90
54614;DHT22;40514;52.758;6.360;2022-12-07T09:01:20;4.10;99.90
54614;DHT22;40514;52.758;6.360;2022-12-07T09:03:45;4.20;99.90
54614;DHT22;40514;52.758;6.360;2022-12-07T09:06:11;4.30;99.90
54614;DHT22;40514;52.758;6.360;2022-12-07T09:08:40;4.30;99.90
54614;DHT22;40514;52.758;6.360;2022-12-07T09:11:07;4.30;99.90
54614;DHT22;40514;52.758;6.360;2022-12-07T09:13:33;4.20;99.90
54614;DHT22;40514;52.758;6.360;2022-12-07T09:15:58;4.20;99.90
54614;DHT22;40514;52.758;6.360;2022-12-07T09:18:24;4.10;99.90
54614;DHT22;40514;52.758;6.360;2022-12-07T09:20:50;4.20;99.90
54614;DHT22;40514;52.758;6.360;2022-12-07T09:23:16;4.20;99.90
54614;DHT22;40514;52.758;6.360;2022-12-07T09:25:41;4.70;99.90
54614;DHT22;40514;52.758;6.360;2022-12-07T09:28:07;5.10;99.90
54614;DHT22;40514;52.758;6.360;2022-12-07T09:30:33;5.40;99.90
54614;DHT22;40514;52.758;6.360;2022-12-07T09:32:59;5.40;99.90
54614;DHT22;40514;52.758;6.360;2022-12-07T09:35:25;5.50;99.90
54614;DHT22;40514;52.758;6.360;2022-12-07T09:37:51;5.40;99.90
54614;DHT22;40514;52.758;6.360;2022-12-07T09:40:18;5.40;99.90
54614;DHT22;40514;52.758;6.360;2022-12-07T09:42:48;5.50;99.90
54614;DHT22;40514;52.758;6.360;2022-12-07T09:45:19;5.80;99.90
54614;DHT22;40514;52.758;6.360;2022-12-07T09:47:46;6.00;99.90
54614;DHT22;40514;52.758;6.360;2022-12-07T09:50:24;6.20;99.90
54614;DHT22;40514;52.758;6.360;2022-12-07T09:52:51;6.30;99.90
54614;DHT22;40514;52.758;6.360;2022-12-07T09:55:27;6.20;99.90
54614;DHT22;40514;52.758;6.360;2022-12-07T09:57:54;6.10;99.90
54614;DHT22;40514;52.758;6.360;2022-12-07T10:00:21;6.00;99.90
54614;DHT22;40514;52.758;6.360;2022-12-07T10:02:59;6.00;99.90
54614;DHT22;40514;52.758;6.360;2022-12-07T10:05:40;6.00;99.90
54614;DHT22;40514;52.758;6.360;2022-12-07T10:08:12;6.00;99.90
54614;DHT22;40514;52.758;6.360;2022-12-07T10:10:38;6.00;99.90
54614;DHT22;40514;52.758;6.360;2022-12-07T10:13:15;6.00;99.90
54614;DHT22;40514;52.758;6.360;2022-12-07T10:15:56;5.90;99.90
54614;DHT22;40514;52.758;6.360;2022-12-07T10:23:33;5.90;99.90
54614;DHT22;40514;52.758;6.360;2022-12-07T10:25:58;6.00;99.90
54614;DHT22;40514;52.758;6.360;2022-12-07T10:28:34;6.10;99.90
54614;DHT22;40514;52.758;6.360;2022-12-07T10:31:03;7.00;99.90
54614;DHT22;40514;52.758;6.360;2022-12-07T10:33:54;8.40;99.90
54614;DHT22;40514;52.758;6.360;2022-12-07T10:38:52;11.20;99.90
54614;DHT22;40514;52.758;6.360;2022-12-07T10:41:18;11.80;99.90
54614;DHT22;40514;52.758;6.360;2022-12-07T10:43:51;12.40;99.90
54614;DHT22;40514;52.758;6.360;2022-12-07T10:52:58;9.90;99.90
54614;DHT22;40514;52.758;6.360;2022-12-07T11:00:49;8.30;99.90
54614;DHT22;40514;52.758;6.360;2022-12-07T11:06:30;7.80;99.90
54614;DHT22;40514;52.758;6.360;2022-12-07T11:09:28;7.70;99.90
54614;DHT22;40514;52.758;6.360;2022-12-07T11:12:04;7.80;99.90
54614;DHT22;40514;52.758;6.360;2022-12-07T11:14:47;7.80;99.90
54614;DHT22;40514;52.758;6.360;2022-12-07T11:20:39;7.90;99.90
54614;DHT22;40514;52.758;6.360;2022-12-07T11:26:03;8.50;99.90
54614;DHT22;40514;52.758;6.360;2022-12-07T11:31:54;8.80;99.90
54614;DHT22;40514;52.758;6.360;2022-12-07T11:37:36;8.80;99.90
54614;DHT22;40514;52.758;6.360;2022-12-07T11:40:47;8.80;99.90
54614;DHT22;40514;52.758;6.360;2022-12-07T11:45:43;8.70;99.90
54614;DHT22;40514;52.758;6.360;2022-12-07T11:48:29;8.70;99.90
54614;DHT22;40514;52.758;6.360;2022-12-07T11:50:58;8.70;99.90
54614;DHT22;40514;52.758;6.360;2022-12-07T11:53:54;8.70;99.90
54614;DHT22;40514;52.758;6.360;2022-12-07T11:56:24;8.60;99.90
54614;DHT22;40514;52.758;6.360;2022-12-07T11:58:58;8.30;99.90
54614;DHT22;40514;52.758;6.360;2022-12-07T12:06:38;7.80;99.90
54614;DHT22;40514;52.758;6.360;2022-12-07T12:09:14;7.70;99.90
54614;DHT22;40514;52.758;6.360;2022-12-07T12:15:00;7.80;99.90
54614;DHT22;40514;52.758;6.360;2022-12-07T12:23:01;8.20;99.90
54614;DHT22;40514;52.758;6.360;2022-12-07T12:25:36;8.30;99.90
54614;DHT22;40514;52.758;6.360;2022-12-07T12:28:03;8.30;99.90
54614;DHT22;40514;52.758;6.360;2022-12-07T12:30:33;8.30;99.90
54614;DHT22;40514;52.758;6.360;2022-12-07T12:33:05;8.30;99.90
54614;DHT22;40514;52.758;6.360;2022-12-07T12:35:37;8.20;99.90
54614;DHT22;40514;52.758;6.360;2022-12-07T12:47:02;8.20;99.90
54614;DHT22;40514;52.758;6.360;2022-12-07T12:52:45;8.20;99.90
54614;DHT22;40514;52.758;6.360;2022-12-07T12:55:13;8.20;99.90
54614;DHT22;40514;52.758;6.360;2022-12-07T12:57:42;8.20;99.90
54614;DHT22;40514;52.758;6.360;2022-12-07T13:00:22;8.20;99.90
54614;DHT22;40514;52.758;6.360;2022-12-07T13:02:55;8.10;99.90
54614;DHT22;40514;52.758;6.360;2022-12-07T13:05:24;8.10;99.90
54614;DHT22;40514;52.758;6.360;2022-12-07T13:07:53;8.00;99.90
54614;DHT22;40514;52.758;6.360;2022-12-07T13:15:56;7.90;99.90
54614;DHT22;40514;52.758;6.360;2022-12-07T13:18:40;7.90;99.90
54614;DHT22;40514;52.758;6.360;2022-12-07T13:28:51;7.80;99.90
54614;DHT22;40514;52.758;6.360;2022-12-07T13:31:30;7.70;99.90
54614;DHT22;40514;52.758;6.360;2022-12-07T13:33:57;7.70;99.90
54614;DHT22;40514;52.758;6.360;2022-12-07T13:36:25;7.70;99.90
54614;DHT22;40514;52.758;6.360;2022-12-07T13:38:57;7.70;99.90
54614;DHT22;40514;52.758;6.360;2022-12-07T13:41:28;7.60;99.90
54614;DHT22;40514;52.758;6.360;2022-12-07T13:44:03;7.60;99.90
54614;DHT22;40514;52.758;6.360;2022-12-07T13:46:48;7.50;99.90
54614;DHT22;40514;52.758;6.360;2022-12-07T13:49:28;7.50;99.90
54614;DHT22;40514;52.758;6.360;2022-12-07T13:51:56;7.40;99.90
54614;DHT22;40514;52.758;6.360;2022-12-07T13:54:32;7.50;99.90
54614;DHT22;40514;52.758;6.360;2022-12-07T13:56:58;7.40;99.90
54614;DHT22;40514;52.758;6.360;2022-12-07T13:59:25;7.40;99.90
54614;DHT22;40514;52.758;6.360;2022-12-07T14:01:53;7.40;99.90
54614;DHT22;40514;52.758;6.360;2022-12-07T14:04:38;7.40;99.90
54614;DHT22;40514;52.758;6.360;2022-12-07T14:07:30;7.40;99.90
54614;DHT22;40514;52.758;6.360;2022-12-07T14:10:01;7.30;99.90
54614;DHT22;40514;52.758;6.360;2022-12-07T14:12:29;7.30;99.90
54614;DHT22;40514;52.758;6.360;2022-12-07T14:14:56;7.30;99.90
54614;DHT22;40514;52.758;6.360;2022-12-07T14:17:24;7.30;99.90
54614;DHT22;40514;52.758;6.360;2022-12-07T14:20:01;7.20;99.90
54614;DHT22;40514;52.758;6.360;2022-12-07T14:22:28;7.20;99.90
54614;DHT22;40514;52.758;6.360;2022-12-07T14:28:00;7.10;99.90
54614;DHT22;40514;52.758;6.360;2022-12-07T14:30:31;7.00;99.90
54614;DHT22;40514;52.758;6.360;2022-12-07T14:33:02;6.90;99.90
54614;DHT22;40514;52.758;6.360;2022-12-07T14:35:30;6.80;99.90
54614;DHT22;40514;52.758;6.360;2022-12-07T14:37:56;6.70;99.90
54614;DHT22;40514;52.758;6.360;2022-12-07T14:40:27;6.60;99.90
54614;DHT22;40514;52.758;6.360;2022-12-07T14:43:01;6.60;99.90
54614;DHT22;40514;52.758;6.360;2022-12-07T14:45:27;6.60;99.90
54614;DHT22;40514;52.758;6.360;2022-12-07T14:47:53;6.60;99.90
54614;DHT22;40514;52.758;6.360;2022-12-07T14:50:20;6.50;99.90
54614;DHT22;40514;52.758;6.360;2022-12-07T14:53:09;6.40;99.90
54614;DHT22;40514;52.758;6.360;2022-12-07T14:55:36;6.40;99.90
54614;DHT22;40514;52.758;6.360;2022-12-07T14:58:01;6.30;99.90
54614;DHT22;40514;52.758;6.360;2022-12-07T15:00:28;6.20;99.90
54614;DHT22;40514;52.758;6.360;2022-12-07T15:02:54;6.30;99.90
54614;DHT22;40514;52.758;6.360;2022-12-07T15:05:20;6.40;99.90
54614;DHT22;40514;52.758;6.360;2022-12-07T15:07:47;6.40;99.90
54614;DHT22;40514;52.758;6.360;2022-12-07T15:10:20;6.30;99.90
54614;DHT22;40514;52.758;6.360;2022-12-07T15:12:46;6.30;99.90
54614;DHT22;40514;52.758;6.360;2022-12-07T15:15:12;6.40;99.90
54614;DHT22;40514;52.758;6.360;2022-12-07T15:17:38;6.40;99.90
54614;DHT22;40514;52.758;6.360;2022-12-07T15:20:04;6.30;99.90
54614;DHT22;40514;52.758;6.360;2022-12-07T15:22:30;6.30;99.90
54614;DHT22;40514;52.758;6.360;2022-12-07T15:24:57;6.20;99.90
54614;DHT22;40514;52.758;6.360;2022-12-07T15:27:22;6.10;99.90
54614;DHT22;40514;52.758;6.360;2022-12-07T15:29:48;6.20;99.90
54614;DHT22;40514;52.758;6.360;2022-12-07T15:32:13;6.00;99.90
54614;DHT22;40514;52.758;6.360;2022-12-07T15:34:39;5.90;99.90
54614;DHT22;40514;52.758;6.360;2022-12-07T15:37:05;5.80;99.90
54614;DHT22;40514;52.758;6.360;2022-12-07T15:39:31;5.80;99.90
54614;DHT22;40514;52.758;6.360;2022-12-07T15:41:57;5.80;99.90
54614;DHT22;40514;52.758;6.360;2022-12-07T15:44:22;5.80;99.90
54614;DHT22;40514;52.758;6.360;2022-12-07T15:47:06;5.80;99.90
54614;DHT22;40514;52.758;6.360;2022-12-07T15:49:32;5.70;99.90
54614;DHT22;40514;52.758;6.360;2022-12-07T15:51:57;5.60;99.90
54614;DHT22;40514;52.758;6.360;2022-12-07T15:54:28;5.50;99.90
54614;DHT22;40514;52.758;6.360;2022-12-07T15:56:55;5.50;99.90
54614;DHT22;40514;52.758;6.360;2022-12-07T15:59:22;5.50;99.90
54614;DHT22;40514;52.758;6.360;2022-12-07T16:01:47;5.30;99.90
54614;DHT22;40514;52.758;6.360;2022-12-07T16:04:13;5.20;99.90
54614;DHT22;40514;52.758;6.360;2022-12-07T16:06:39;5.10;99.90
54614;DHT22;40514;52.758;6.360;2022-12-07T16:09:05;5.10;99.90
54614;DHT22;40514;52.758;6.360;2022-12-07T16:11:31;5.10;99.90
54614;DHT22;40514;52.758;6.360;2022-12-07T16:13:56;5.00;99.90
54614;DHT22;40514;52.758;6.360;2022-12-07T16:16:22;5.00;99.90
54614;DHT22;40514;52.758;6.360;2022-12-07T16:18:49;5.00;99.90
54614;DHT22;40514;52.758;6.360;2022-12-07T16:21:16;5.00;99.90
54614;DHT22;40514;52.758;6.360;2022-12-07T16:23:42;5.00;99.90
54614;DHT22;40514;52.758;6.360;2022-12-07T16:26:16;5.20;99.90
54614;DHT22;40514;52.758;6.360;2022-12-07T16:28:42;5.10;99.90
54614;DHT22;40514;52.758;6.360;2022-12-07T16:31:13;5.20;99.90
54614;DHT22;40514;52.758;6.360;2022-12-07T16:33:40;5.10;99.90
54614;DHT22;40514;52.758;6.360;2022-12-07T16:36:06;5.10;99.90
54614;DHT22;40514;52.758;6.360;2022-12-07T16:38:32;5.20;99.90
54614;DHT22;40514;52.758;6.360;2022-12-07T16:40:59;5.30;99.90
54614;DHT22;40514;52.758;6.360;2022-12-07T16:43:25;5.40;99.90
54614;DHT22;40514;52.758;6.360;2022-12-07T16:45:50;5.40;99.90
54614;DHT22;40514;52.758;6.360;2022-12-07T16:48:17;5.40;99.90
54614;DHT22;40514;52.758;6.360;2022-12-07T16:50:43;5.30;99.90
54614;DHT22;40514;52.758;6.360;2022-12-07T16:53:09;5.40;99.90
54614;DHT22;40514;52.758;6.360;2022-12-07T16:55:43;5.20;99.90
54614;DHT22;40514;52.758;6.360;2022-12-07T16:58:13;5.10;99.90
54614;DHT22;40514;52.758;6.360;2022-12-07T17:00:41;5.10;99.90
54614;DHT22;40514;52.758;6.360;2022-12-07T17:03:07;5.00;99.90
54614;DHT22;40514;52.758;6.360;2022-12-07T17:05:36;5.00;99.90
54614;DHT22;40514;52.758;6.360;2022-12-07T17:08:02;5.10;99.90
54614;DHT22;40514;52.758;6.360;2022-12-07T17:10:28;5.00;99.90
54614;DHT22;40514;52.758;6.360;2022-12-07T17:12:54;5.00;99.90
54614;DHT22;40514;52.758;6.360;2022-12-07T17:15:19;4.90;99.90
54614;DHT22;40514;52.758;6.360;2022-12-07T17:17:57;5.00;99.90
54614;DHT22;40514;52.758;6.360;2022-12-07T17:20:26;4.90;99.90
54614;DHT22;40514;52.758;6.360;2022-12-07T17:22:53;4.80;99.90
54614;DHT22;40514;52.758;6.360;2022-12-07T17:25:19;4.80;99.90
54614;DHT22;40514;52.758;6.360;2022-12-07T17:27:46;4.70;99.90
54614;DHT22;40514;52.758;6.360;2022-12-07T17:30:12;4.70;99.90
54614;DHT22;40514;52.758;6.360;2022-12-07T17:32:41;4.70;99.90
54614;DHT22;40514;52.758;6.360;2022-12-07T17:35:07;4.80;99.90
54614;DHT22;40514;52.758;6.360;2022-12-07T17:37:33;4.70;99.90
54614;DHT22;40514;52.758;6.360;2022-12-07T17:39:59;4.60;99.90